createdAt,value
2023-01-09T00:00:54.125Z,96289.41
2023-01-09T00:03:21.588Z,96203.75
2023-01-09T00:05:48.103Z,96242.97
2023-01-09T00:08:15.040Z,96275.59
2023-01-09T00:10:41.868Z,96259.34
2023-01-09T00:13:11.760Z,96292.50
2023-01-09T00:15:39.822Z,96287.31
2023-01-09T00:18:06.867Z,96267.53
2023-01-09T00:20:33.528Z,96235.69
2023-01-09T00:23:00.097Z,96257.66
2023-01-09T00:25:26.567Z,96268.75
2023-01-09T00:27:53.156Z,96216.00
2023-01-09T00:30:19.893Z,96238.81
2023-01-09T00:32:46.439Z,96156.09
2023-01-09T00:35:17.032Z,96156.53
2023-01-09T00:37:43.758Z,96237.50
2023-01-09T00:40:13.491Z,96232.66
2023-01-09T00:42:45.638Z,96197.81
2023-01-09T00:45:18.638Z,96258.91
2023-01-09T00:47:50.073Z,96232.72
2023-01-09T00:50:23.566Z,96289.28
2023-01-09T00:52:52.927Z,96250.00
2023-01-09T00:55:19.690Z,96301.19
2023-01-09T00:57:47.142Z,96239.41
2023-01-09T01:00:14.102Z,96284.53
2023-01-09T01:02:40.806Z,96208.25
2023-01-09T01:05:26.223Z,96243.41
2023-01-09T01:07:52.921Z,96241.31
2023-01-09T01:10:23.788Z,96299.88
2023-01-09T01:12:51.189Z,96267.09
2023-01-09T01:15:18.895Z,96305.13
2023-01-09T01:17:45.621Z,96207.63
2023-01-09T01:20:15.181Z,96215.19
2023-01-09T01:22:44.846Z,96260.16
2023-01-09T01:25:13.590Z,96305.00
2023-01-09T01:27:40.175Z,96299.59
2023-01-09T01:30:11.693Z,96161.28
2023-01-09T01:32:39.752Z,96315.50
2023-01-09T01:35:07.609Z,96265.03
2023-01-09T01:37:36.997Z,96285.91
2023-01-09T01:40:06.158Z,96314.25
2023-01-09T01:42:33.205Z,96318.38
2023-01-09T01:45:41.285Z,96341.16
2023-01-09T01:48:15.884Z,96294.53
2023-01-09T01:50:51.866Z,96339.34
2023-01-09T01:53:29.771Z,96323.59
2023-01-09T01:56:05.404Z,96342.56
2023-01-09T01:58:36.418Z,96332.91
2023-01-09T02:01:04.016Z,96313.72
2023-01-09T02:03:30.918Z,96300.44
2023-01-09T02:05:57.454Z,96260.97
2023-01-09T02:08:24.067Z,96328.25
2023-01-09T02:10:52.073Z,96348.19
2023-01-09T02:13:19.517Z,96314.47
2023-01-09T02:16:04.396Z,96343.31
2023-01-09T02:18:41.813Z,96329.16
2023-01-09T02:21:19.395Z,96349.38
2023-01-09T02:24:20.450Z,96350.19
2023-01-09T02:27:13.436Z,96321.44
2023-01-09T02:30:14.424Z,96356.84
2023-01-09T02:33:03.385Z,96370.34
2023-01-09T02:35:57.197Z,96374.44
2023-01-09T02:38:40.077Z,96382.94
2023-01-09T02:41:14.907Z,96391.31
2023-01-09T02:43:43.079Z,96358.78
2023-01-09T02:46:20.046Z,96362.19
2023-01-09T02:48:52.329Z,96395.00
2023-01-09T02:51:29.036Z,96398.41
2023-01-09T02:54:15.510Z,96398.25
2023-01-09T02:57:07.344Z,96411.72
2023-01-09T02:59:48.929Z,96414.13
2023-01-09T03:02:29.604Z,96418.63
2023-01-09T03:05:16.395Z,96417.09
2023-01-09T03:07:56.456Z,96414.69
2023-01-09T03:10:40.847Z,96419.31
2023-01-09T03:13:11.843Z,96428.78
2023-01-09T03:15:43.077Z,96437.84
2023-01-09T03:18:11.955Z,96444.59
2023-01-09T03:20:39.717Z,96421.34
2023-01-09T03:23:09.261Z,96451.59
2023-01-09T03:25:36.086Z,96428.97
2023-01-09T03:28:08.521Z,96460.91
2023-01-09T03:30:36.539Z,96426.25
2023-01-09T03:33:03.183Z,96436.91
2023-01-09T03:35:29.983Z,96459.59
2023-01-09T03:37:56.709Z,96437.00
2023-01-09T03:40:24.612Z,96453.16
2023-01-09T03:42:51.199Z,96416.50
2023-01-09T03:45:17.738Z,96465.81
2023-01-09T03:47:45.437Z,96473.75
2023-01-09T03:50:12.038Z,96476.81
2023-01-09T03:52:38.692Z,96452.50
2023-01-09T03:55:06.238Z,96465.72
2023-01-09T03:57:32.803Z,96499.44
2023-01-09T03:59:59.328Z,96424.19
2023-01-09T04:02:25.958Z,96482.75
2023-01-09T04:04:52.755Z,96503.94
2023-01-09T04:07:19.363Z,96514.53
2023-01-09T04:09:46.110Z,96480.31
2023-01-09T04:12:12.755Z,96504.53
2023-01-09T04:14:42.403Z,96484.47
2023-01-09T04:17:08.957Z,96530.25
2023-01-09T04:19:35.626Z,96519.31
2023-01-09T04:22:02.213Z,96520.75
2023-01-09T04:24:28.875Z,96467.44
2023-01-09T04:26:56.089Z,96557.19
2023-01-09T04:29:22.720Z,96567.78
2023-01-09T04:31:49.337Z,96574.59
2023-01-09T04:34:15.885Z,96549.00
2023-01-09T04:36:43.205Z,96546.78
2023-01-09T04:39:09.984Z,96577.22
2023-01-09T04:41:51.818Z,96572.41
2023-01-09T04:44:26.232Z,96603.31
2023-01-09T04:46:54.108Z,96558.75
2023-01-09T04:49:21.063Z,96555.25
2023-01-09T04:51:48.067Z,96579.59
2023-01-09T04:54:15.689Z,96583.28
2023-01-09T04:56:42.245Z,96603.81
2023-01-09T04:59:09.108Z,96596.34
2023-01-09T05:01:37.188Z,96552.38
2023-01-09T05:04:04.239Z,96526.31
2023-01-09T05:06:31.737Z,96601.31
2023-01-09T05:08:58.773Z,96553.69
2023-01-09T05:11:25.664Z,96592.50
2023-01-09T05:13:53.198Z,96557.91
2023-01-09T05:16:20.805Z,96590.06
2023-01-09T05:18:49.951Z,96599.50
2023-01-09T05:21:16.666Z,96617.91
2023-01-09T05:23:44.631Z,96639.72
2023-01-09T05:26:11.183Z,96649.28
2023-01-09T05:28:38.074Z,96622.63
2023-01-09T05:31:05.108Z,96618.84
2023-01-09T05:33:31.588Z,96613.31
2023-01-09T05:35:58.223Z,96641.81
2023-01-09T05:38:27.403Z,96611.25
2023-01-09T05:40:54.469Z,96639.06
2023-01-09T05:43:21.219Z,96634.72
2023-01-09T05:45:47.981Z,96657.34
2023-01-09T05:48:14.463Z,96624.69
2023-01-09T05:50:41.050Z,96631.94
2023-01-09T05:53:07.986Z,96654.22
2023-01-09T05:55:34.543Z,96605.81
2023-01-09T05:58:01.087Z,96679.63
2023-01-09T06:00:27.724Z,96655.00
2023-01-09T06:02:54.248Z,96581.00
2023-01-09T06:05:20.890Z,96678.63
2023-01-09T06:07:47.876Z,96684.56
2023-01-09T06:10:15.617Z,96631.75
2023-01-09T06:12:47.122Z,96678.47
2023-01-09T06:15:15.532Z,96621.22
2023-01-09T06:17:43.343Z,96690.56
2023-01-09T06:20:11.919Z,96695.50
2023-01-09T06:22:38.789Z,96706.97
2023-01-09T06:25:06.587Z,96672.78
2023-01-09T06:27:33.120Z,96699.84
2023-01-09T06:29:59.932Z,96663.63
2023-01-09T06:32:26.558Z,96642.47
2023-01-09T06:34:53.174Z,96699.41
2023-01-09T06:37:19.934Z,96657.63
2023-01-09T06:39:47.158Z,96715.38
2023-01-09T06:42:14.763Z,96675.81
2023-01-09T06:44:41.226Z,96693.50
2023-01-09T06:47:08.198Z,96727.66
2023-01-09T06:49:34.799Z,96660.53
2023-01-09T06:52:05.798Z,96675.81
2023-01-09T06:54:32.371Z,96704.44
2023-01-09T06:56:59.223Z,96711.34
2023-01-09T06:59:26.105Z,96716.28
2023-01-09T07:01:53.451Z,96715.13
2023-01-09T07:04:22.016Z,96708.00
2023-01-09T07:06:49.829Z,96703.16
2023-01-09T07:09:16.399Z,96723.50
2023-01-09T07:11:42.956Z,96723.38
2023-01-09T07:14:09.827Z,96649.31
2023-01-09T07:16:36.467Z,96688.84
2023-01-09T07:19:03.246Z,96698.53
2023-01-09T07:21:32.580Z,96702.00
2023-01-09T07:23:59.302Z,96693.56
2023-01-09T07:26:25.981Z,96711.41
2023-01-09T07:28:52.780Z,96725.44
2023-01-09T07:31:19.661Z,96650.22
2023-01-09T07:33:47.176Z,96737.38
2023-01-09T07:36:13.933Z,96678.50
2023-01-09T07:38:40.543Z,96590.47
2023-01-09T07:41:07.081Z,96722.88
2023-01-09T07:43:34.037Z,96644.53
2023-01-09T07:46:00.730Z,96707.69
2023-01-09T07:48:28.012Z,96727.47
2023-01-09T07:50:54.803Z,96716.56
2023-01-09T07:53:22.215Z,96702.34
2023-01-09T07:55:48.887Z,96725.75
2023-01-09T07:58:15.676Z,96703.94
2023-01-09T08:00:42.435Z,96717.06
2023-01-09T08:03:09.527Z,96765.50
2023-01-09T08:05:36.492Z,96760.50
2023-01-09T08:08:03.299Z,96739.78
2023-01-09T08:10:30.046Z,96751.78
2023-01-09T08:12:58.961Z,96753.50
2023-01-09T08:15:25.480Z,96772.44
2023-01-09T08:17:51.987Z,96738.75
2023-01-09T08:20:18.778Z,96683.44
2023-01-09T08:22:50.850Z,96774.16
2023-01-09T08:25:18.015Z,96737.34
2023-01-09T08:27:44.794Z,96777.66
2023-01-09T08:30:15.767Z,96762.03
2023-01-09T08:32:43.354Z,96783.34
2023-01-09T08:35:10.907Z,96789.94
2023-01-09T08:37:37.708Z,96713.41
2023-01-09T08:40:04.913Z,96789.44
2023-01-09T08:42:50.538Z,96762.44
2023-01-09T08:45:35.912Z,96757.91
2023-01-09T08:48:02.430Z,96770.94
2023-01-09T08:50:29.161Z,96803.19
2023-01-09T08:52:55.668Z,96791.81
2023-01-09T08:55:22.442Z,96765.22
2023-01-09T08:57:50.408Z,96695.38
2023-01-09T09:00:18.986Z,96762.97
2023-01-09T09:02:45.690Z,96787.13
2023-01-09T09:05:12.421Z,96774.53
2023-01-09T09:07:42.170Z,96756.31
2023-01-09T09:10:10.281Z,96754.25
2023-01-09T09:12:37.968Z,96781.53
2023-01-09T09:15:13.703Z,96731.59
2023-01-09T09:17:40.777Z,96754.56
2023-01-09T09:20:10.209Z,96788.09
2023-01-09T09:22:41.963Z,96775.00
2023-01-09T09:25:08.750Z,96790.75
2023-01-09T09:27:36.632Z,96766.59
2023-01-09T09:30:05.787Z,96798.34
2023-01-09T09:32:32.667Z,96781.22
2023-01-09T09:34:59.375Z,96786.88
2023-01-09T09:37:26.203Z,96783.53
2023-01-09T09:39:52.735Z,96813.81
2023-01-09T09:42:57.060Z,96818.63
2023-01-09T09:45:35.146Z,96828.41
2023-01-09T09:48:20.731Z,96836.66
2023-01-09T09:50:56.519Z,96842.78
2023-01-09T09:53:38.660Z,96832.53
2023-01-09T09:56:08.189Z,96840.16
2023-01-09T09:58:38.787Z,96855.06
2023-01-09T10:01:07.912Z,96860.72
2023-01-09T10:03:47.705Z,96858.34
2023-01-09T10:06:29.772Z,96828.03
2023-01-09T10:09:29.509Z,96861.28
2023-01-09T10:12:01.482Z,96834.03
2023-01-09T10:14:28.283Z,96833.84
2023-01-09T10:17:14.131Z,96854.44
2023-01-09T10:20:24.940Z,96855.00
2023-01-09T10:23:01.199Z,96850.84
2023-01-09T10:25:45.932Z,96832.72
2023-01-09T10:28:40.874Z,96733.44
2023-01-09T10:31:25.533Z,96806.50
2023-01-09T10:34:12.887Z,96779.72
2023-01-09T10:36:49.156Z,96827.19
2023-01-09T10:39:26.112Z,96829.44
2023-01-09T10:42:07.731Z,96836.34
2023-01-09T10:44:42.287Z,96825.22
2023-01-09T10:47:16.921Z,96818.31
2023-01-09T10:49:48.083Z,96826.72
2023-01-09T10:52:20.726Z,96827.75
2023-01-09T10:55:00.806Z,96806.13
2023-01-09T10:57:33.976Z,96819.03
2023-01-09T11:00:00.978Z,96802.34
2023-01-09T11:02:34.772Z,96806.75
2023-01-09T11:05:01.344Z,96801.00
2023-01-09T11:07:35.860Z,96805.22
2023-01-09T11:10:07.983Z,96800.75
2023-01-09T11:12:36.733Z,96808.81
2023-01-09T11:15:15.763Z,96808.91
2023-01-09T11:17:46.752Z,96816.38
2023-01-09T11:20:26.245Z,96721.28
2023-01-09T11:22:55.352Z,96814.50
2023-01-09T11:25:25.612Z,96817.69
2023-01-09T11:28:02.390Z,96820.13
2023-01-09T11:30:31.431Z,96817.91
2023-01-09T11:32:59.165Z,96811.03
2023-01-09T11:35:33.713Z,96798.25
2023-01-09T11:38:05.589Z,96794.56
2023-01-09T11:40:45.094Z,96789.63
2023-01-09T11:43:14.275Z,96812.41
2023-01-09T11:46:00.170Z,96817.59
2023-01-09T11:48:39.146Z,96808.97
2023-01-09T11:51:18.015Z,96808.81
2023-01-09T11:54:10.757Z,96814.47
2023-01-09T11:56:38.878Z,96811.94
2023-01-09T11:59:13.571Z,96681.72
2023-01-09T12:02:19.834Z,96740.13
2023-01-09T12:05:04.487Z,96814.25
2023-01-09T12:07:50.993Z,96788.47
2023-01-09T12:10:30.914Z,96827.47
2023-01-09T12:13:31.318Z,96833.72
2023-01-09T12:16:22.386Z,96835.44
2023-01-09T12:19:21.845Z,96777.06
2023-01-09T12:22:35.313Z,96838.41
2023-01-09T12:25:23.809Z,96820.59
2023-01-09T12:28:15.036Z,96830.72
2023-01-09T12:30:50.725Z,96785.34
2023-01-09T12:33:37.282Z,96780.38
2023-01-09T12:36:17.968Z,96823.06
2023-01-09T12:38:49.349Z,96818.59
2023-01-09T12:41:23.188Z,96821.03
2023-01-09T12:44:08.805Z,96806.56
2023-01-09T12:47:00.175Z,96817.78
2023-01-09T12:49:38.839Z,96814.78
2023-01-09T12:52:17.499Z,96814.94
2023-01-09T12:54:51.739Z,96823.00
2023-01-09T12:57:34.761Z,96797.66
2023-01-09T13:00:21.922Z,96833.59
2023-01-09T13:03:11.196Z,96821.84
2023-01-09T13:05:53.422Z,96822.63
2023-01-09T13:08:30.325Z,96766.84
2023-01-09T13:11:01.580Z,96760.88
2023-01-09T13:14:10.878Z,96772.66
2023-01-09T13:16:49.988Z,96795.22
2023-01-09T13:19:29.112Z,96821.41
2023-01-09T13:21:59.028Z,96825.47
2023-01-09T13:24:37.867Z,96821.91
2023-01-09T13:27:15.674Z,96752.09
2023-01-09T13:29:45.701Z,96825.00
2023-01-09T13:32:37.446Z,96826.16
2023-01-09T13:35:04.823Z,96789.38
2023-01-09T13:37:34.981Z,96825.13
2023-01-09T13:40:20.210Z,96832.53
2023-01-09T13:43:04.982Z,96808.78
2023-01-09T13:45:37.278Z,96822.00
2023-01-09T13:48:11.237Z,96824.75
2023-01-09T13:50:39.334Z,96678.34
2023-01-09T13:53:18.428Z,96830.66
2023-01-09T13:55:57.598Z,96838.25
2023-01-09T13:58:48.891Z,96839.31
2023-01-09T14:01:42.405Z,96832.53
2023-01-09T14:04:17.992Z,96844.03
2023-01-09T14:07:30.107Z,96843.00
2023-01-09T14:10:01.265Z,96839.00
2023-01-09T14:12:32.552Z,96860.28
2023-01-09T14:15:02.430Z,96868.22
2023-01-09T14:17:36.290Z,96876.75
2023-01-09T14:20:07.318Z,96860.50
2023-01-09T14:22:46.090Z,96843.81
2023-01-09T14:25:26.125Z,96879.41
2023-01-09T14:27:55.718Z,96888.25
2023-01-09T14:30:55.165Z,96898.94
2023-01-09T14:33:22.620Z,96909.34
2023-01-09T14:36:16.075Z,96891.03
2023-01-09T14:38:59.879Z,96913.13
2023-01-09T14:42:05.851Z,96896.09
2023-01-09T14:44:46.826Z,96891.03
2023-01-09T14:47:31.680Z,96925.78
2023-01-09T14:50:16.768Z,96935.38
2023-01-09T14:53:08.497Z,96951.72
2023-01-09T14:55:51.437Z,96955.84
2023-01-09T14:58:21.642Z,96963.97
2023-01-09T15:00:57.045Z,96920.44
2023-01-09T15:03:26.870Z,96933.34
2023-01-09T15:05:54.454Z,96887.91
2023-01-09T15:08:26.011Z,96999.78
2023-01-09T15:10:56.136Z,96976.78
2023-01-09T15:13:41.434Z,96988.13
2023-01-09T15:16:18.463Z,96957.44
2023-01-09T15:18:48.458Z,96956.63
2023-01-09T15:21:20.226Z,97006.31
2023-01-09T15:23:46.915Z,96981.63
2023-01-09T15:26:31.679Z,96962.00
2023-01-09T15:29:10.331Z,97023.09
2023-01-09T15:31:45.839Z,96979.00
2023-01-09T15:34:20.131Z,97018.56
2023-01-09T15:36:49.515Z,97025.69
2023-01-09T15:39:28.007Z,97025.66
2023-01-09T15:42:14.403Z,96960.41
2023-01-09T15:44:44.003Z,97015.75
2023-01-09T15:47:18.858Z,97047.16
2023-01-09T15:49:46.955Z,97034.66
2023-01-09T15:52:16.987Z,97023.25
2023-01-09T15:54:46.627Z,97044.47
2023-01-09T15:57:33.650Z,97050.56
2023-01-09T16:00:23.734Z,97051.75
2023-01-09T16:03:08.766Z,97064.47
2023-01-09T16:05:40.886Z,97023.69
2023-01-09T16:08:20.540Z,97064.00
2023-01-09T16:10:56.385Z,97088.41
2023-01-09T16:13:25.636Z,97090.44
2023-01-09T16:15:53.257Z,97068.44
2023-01-09T16:18:23.055Z,97105.66
2023-01-09T16:20:49.720Z,97082.28
2023-01-09T16:23:23.331Z,97115.59
2023-01-09T16:25:50.043Z,97109.72
2023-01-09T16:28:26.983Z,97084.75
2023-01-09T16:31:09.441Z,97128.22
2023-01-09T16:33:43.295Z,97094.09
2023-01-09T16:36:10.906Z,97133.19
2023-01-09T16:38:39.127Z,97125.97
2023-01-09T16:41:26.156Z,97154.50
2023-01-09T16:43:57.966Z,97135.97
2023-01-09T16:46:26.557Z,97116.97
2023-01-09T16:48:54.690Z,97130.25
2023-01-09T16:51:23.009Z,97178.16
2023-01-09T16:53:50.113Z,97180.19
2023-01-09T16:56:23.450Z,97178.56
2023-01-09T16:58:51.034Z,97184.03
2023-01-09T17:01:18.203Z,97182.28
2023-01-09T17:03:45.126Z,97205.75
2023-01-09T17:06:21.138Z,97198.66
2023-01-09T17:08:51.462Z,97171.31
2023-01-09T17:11:24.359Z,97204.69
2023-01-09T17:13:51.632Z,97157.84
2023-01-09T17:16:20.375Z,97188.41
2023-01-09T17:18:50.190Z,97205.84
2023-01-09T17:21:22.463Z,97153.09
2023-01-09T17:24:09.657Z,97169.25
2023-01-09T17:26:56.435Z,97175.22
2023-01-09T17:29:24.726Z,97200.88
2023-01-09T17:31:52.042Z,97157.81
2023-01-09T17:34:20.379Z,97177.44
2023-01-09T17:36:47.046Z,97090.84
2023-01-09T17:39:15.495Z,97249.09
2023-01-09T17:41:42.429Z,97200.16
2023-01-09T17:44:11.160Z,97239.03
2023-01-09T17:46:41.316Z,97283.41
2023-01-09T17:49:15.093Z,97271.00
2023-01-09T17:51:41.811Z,97279.50
2023-01-09T17:54:09.679Z,97238.97
2023-01-09T17:56:39.276Z,97262.50
2023-01-09T17:59:11.494Z,97252.78
2023-01-09T18:01:39.712Z,97269.78
2023-01-09T18:04:06.583Z,97276.13
2023-01-09T18:06:33.198Z,97289.53
2023-01-09T18:08:59.750Z,97243.19
2023-01-09T18:11:26.872Z,97302.91
2023-01-09T18:13:58.864Z,97265.03
2023-01-09T18:16:32.517Z,97268.72
2023-01-09T18:19:01.447Z,97254.56
2023-01-09T18:21:31.088Z,97320.63
2023-01-09T18:23:59.371Z,97320.16
2023-01-09T18:26:28.621Z,97325.28
2023-01-09T18:28:57.261Z,97325.63
2023-01-09T18:31:25.620Z,97323.22
2023-01-09T18:33:54.075Z,97346.19
2023-01-09T18:36:24.317Z,97332.25
2023-01-09T18:38:53.245Z,97313.00
2023-01-09T18:41:20.426Z,97353.31
2023-01-09T18:43:55.307Z,97359.22
2023-01-09T18:46:25.515Z,97318.69
2023-01-09T18:48:54.320Z,97367.75
2023-01-09T18:51:22.855Z,97370.75
2023-01-09T18:53:50.616Z,97343.38
2023-01-09T18:56:19.333Z,97379.47
2023-01-09T18:58:46.921Z,97336.09
2023-01-09T19:01:15.632Z,97368.34
2023-01-09T19:03:45.115Z,97257.50
2023-01-09T19:06:12.616Z,97374.63
2023-01-09T19:08:39.235Z,97383.78
2023-01-09T19:11:06.259Z,97399.41
2023-01-09T19:13:36.770Z,97369.78
2023-01-09T19:16:05.674Z,97408.69
2023-01-09T19:18:34.263Z,97393.66
2023-01-09T19:21:00.933Z,97405.47
2023-01-09T19:23:27.550Z,97392.91
2023-01-09T19:25:54.748Z,97419.69
2023-01-09T19:28:21.584Z,97411.44
2023-01-09T19:30:55.341Z,97406.75
2023-01-09T19:33:21.833Z,97411.59
2023-01-09T19:35:49.572Z,97405.69
2023-01-09T19:38:16.267Z,97416.28
2023-01-09T19:40:43.012Z,97414.88
2023-01-09T19:43:09.792Z,97421.22
2023-01-09T19:45:39.081Z,97430.69
2023-01-09T19:48:06.099Z,97439.66
2023-01-09T19:50:32.999Z,97426.69
2023-01-09T19:52:59.481Z,97371.13
2023-01-09T19:55:26.033Z,97430.56
2023-01-09T19:57:52.508Z,97429.38
2023-01-09T20:00:19.384Z,97401.25
2023-01-09T20:02:49.540Z,97382.97
2023-01-09T20:05:17.365Z,97463.69
2023-01-09T20:07:43.994Z,97449.09
2023-01-09T20:10:11.023Z,97477.50
2023-01-09T20:12:37.665Z,97405.72
2023-01-09T20:15:05.065Z,97469.94
2023-01-09T20:17:33.178Z,97430.63
2023-01-09T20:19:59.801Z,97445.50
2023-01-09T20:22:26.811Z,97401.84
2023-01-09T20:24:54.359Z,97495.38
2023-01-09T20:27:20.886Z,97450.09
2023-01-09T20:29:48.165Z,97305.97
2023-01-09T20:32:16.890Z,97491.41
2023-01-09T20:34:46.645Z,97502.78
2023-01-09T20:37:14.848Z,97444.19
2023-01-09T20:39:41.501Z,97528.41
2023-01-09T20:42:08.794Z,97525.97
2023-01-09T20:44:35.462Z,97530.03
2023-01-09T20:47:03.685Z,97535.34
2023-01-09T20:49:30.200Z,97524.75
2023-01-09T20:51:57.139Z,97493.09
2023-01-09T20:54:23.898Z,97521.72
2023-01-09T20:56:51.035Z,97509.97
2023-01-09T20:59:22.752Z,97530.47
2023-01-09T21:01:51.011Z,97529.25
2023-01-09T21:04:18.601Z,97509.34
2023-01-09T21:06:45.775Z,97555.63
2023-01-09T21:09:14.143Z,97505.66
2023-01-09T21:11:40.666Z,97527.41
2023-01-09T21:14:07.525Z,97549.13
2023-01-09T21:16:34.198Z,97437.91
2023-01-09T21:19:00.800Z,97549.94
2023-01-09T21:21:28.808Z,97542.59
2023-01-09T21:23:59.028Z,97577.56
2023-01-09T21:26:30.841Z,97582.06
2023-01-09T21:29:02.139Z,97565.38
2023-01-09T21:31:34.602Z,97596.25
2023-01-09T21:34:04.652Z,97595.03
2023-01-09T21:36:31.716Z,97591.00
2023-01-09T21:39:07.824Z,97541.44
2023-01-09T21:42:03.791Z,97493.75
2023-01-09T21:44:49.236Z,97606.44
2023-01-09T21:47:15.879Z,97585.72
2023-01-09T21:49:44.198Z,97615.81
2023-01-09T21:52:13.957Z,97615.41
2023-01-09T21:54:41.970Z,97618.50
2023-01-09T21:57:09.140Z,97606.09
2023-01-09T21:59:35.657Z,97563.63
2023-01-09T22:02:02.351Z,97589.63
2023-01-09T22:04:29.207Z,97626.81
2023-01-09T22:06:56.797Z,97634.53
2023-01-09T22:09:23.375Z,97611.38
2023-01-09T22:11:50.088Z,97630.50
2023-01-09T22:14:18.029Z,97658.97
2023-01-09T22:16:45.955Z,97658.56
2023-01-09T22:19:16.281Z,97675.81
2023-01-09T22:21:42.793Z,97639.84
2023-01-09T22:24:15.600Z,97606.50
2023-01-09T22:26:44.162Z,97690.69
2023-01-09T22:29:12.321Z,97674.00
2023-01-09T22:31:43.173Z,97672.59
2023-01-09T22:34:14.042Z,97701.66
2023-01-09T22:36:41.758Z,97617.91
2023-01-09T22:39:13.991Z,97668.31
2023-01-09T22:41:40.959Z,97713.25
2023-01-09T22:44:09.582Z,97713.88
2023-01-09T22:46:36.119Z,97673.19
2023-01-09T22:49:05.444Z,97673.81
2023-01-09T22:51:35.129Z,97697.59
2023-01-09T22:54:01.948Z,97704.50
2023-01-09T22:56:33.749Z,97723.22
2023-01-09T22:59:01.029Z,97723.03
2023-01-09T23:01:28.337Z,97763.09
2023-01-09T23:03:54.865Z,97726.47
2023-01-09T23:06:22.600Z,97705.72
2023-01-09T23:08:51.151Z,97743.56
2023-01-09T23:11:42.919Z,97774.47
2023-01-09T23:14:10.571Z,97782.63
2023-01-09T23:16:37.502Z,97759.41
2023-01-09T23:19:09.040Z,97789.53
2023-01-09T23:21:37.018Z,97792.56
2023-01-09T23:24:03.925Z,97776.91
2023-01-09T23:26:30.531Z,97782.00
2023-01-09T23:28:56.985Z,97804.19
2023-01-09T23:31:27.607Z,97747.97
2023-01-09T23:33:55.157Z,97813.50
2023-01-09T23:36:22.795Z,97783.38
2023-01-09T23:38:49.703Z,97817.97
2023-01-09T23:41:16.607Z,97789.03
2023-01-09T23:43:48.770Z,97785.97
2023-01-09T23:46:15.349Z,97834.81
2023-01-09T23:48:41.870Z,97813.81
2023-01-09T23:51:08.561Z,97807.09
2023-01-09T23:53:35.155Z,97823.59
2023-01-09T23:56:03.162Z,97775.94
2023-01-09T23:58:30.038Z,97867.38
